TimeEDT,TemperatureF,Dew PointF,Humidity,Sea Level PressureIn,VisibilityMPH,Wind Direction,Wind SpeedMPH,Gust SpeedMPH,PrecipitationIn,Events,Conditions,WindDirDegrees,DateUTC
12:15 AM,57.2,51.8,82,29.88,10.0,Calm,Calm,-,N/A,,Overcast,0,2013-05-07 04:15:00
12:35 AM,57.2,51.8,82,29.88,10.0,Calm,Calm,-,N/A,,Overcast,0,2013-05-07 04:35:00
12:55 AM,57.2,51.8,82,29.89,10.0,Calm,Calm,-,N/A,,Overcast,0,2013-05-07 04:55:00
1:15 AM,57.2,51.8,82,29.89,10.0,SW,3.5,-,N/A,,Overcast,220,2013-05-07 05:15:00
1:35 AM,57.2,48.2,72,29.89,10.0,WSW,5.8,-,N/A,,Overcast,250,2013-05-07 05:35:00
1:55 AM,57.2,48.2,72,29.89,10.0,WSW,6.9,-,N/A,,Mostly Cloudy,250,2013-05-07 05:55:00
2:15 AM,57.2,46.4,67,29.88,10.0,West,3.5,-,N/A,,Mostly Cloudy,270,2013-05-07 06:15:00
2:35 AM,57.2,46.4,67,29.88,10.0,West,3.5,-,N/A,,Mostly Cloudy,270,2013-05-07 06:35:00
2:55 AM,55.4,46.4,72,29.88,10.0,West,3.5,-,N/A,,Scattered Clouds,270,2013-05-07 06:55:00
3:15 AM,55.4,46.4,72,29.87,10.0,West,3.5,-,N/A,,Partly Cloudy,280,2013-05-07 07:15:00
3:35 AM,55.4,46.4,72,29.87,10.0,Calm,Calm,-,N/A,,Mostly Cloudy,0,2013-05-07 07:35:00
3:55 AM,53.6,46.4,77,29.87,10.0,West,3.5,-,N/A,,Partly Cloudy,270,2013-05-07 07:55:00
4:15 AM,53.6,46.4,77,29.88,10.0,Calm,Calm,-,N/A,,Clear,0,2013-05-07 08:15:00
4:35 AM,53.6,46.4,77,29.87,10.0,West,3.5,-,N/A,,Clear,260,2013-05-07 08:35:00
4:55 AM,53.6,46.4,77,29.87,10.0,West,3.5,-,N/A,,Clear,260,2013-05-07 08:55:00
5:15 AM,53.6,46.4,77,29.87,10.0,Calm,Calm,-,N/A,,Clear,0,2013-05-07 09:15:00
5:35 AM,53.6,46.4,77,29.87,10.0,Calm,Calm,-,N/A,,Clear,0,2013-05-07 09:35:00
5:55 AM,53.6,46.4,77,29.87,10.0,Calm,Calm,-,N/A,,Clear,0,2013-05-07 09:55:00
6:15 AM,53.6,46.4,77,29.88,10.0,Calm,Calm,-,N/A,,Clear,0,2013-05-07 10:15:00
6:35 AM,53.6,46.4,77,29.89,10.0,Calm,Calm,-,N/A,,Clear,0,2013-05-07 10:35:00
6:55 AM,51.8,46.4,82,29.89,10.0,Calm,Calm,-,N/A,,Clear,0,2013-05-07 10:55:00
7:15 AM,53.6,46.4,77,29.90,10.0,WSW,3.5,-,N/A,,Clear,240,2013-05-07 11:15:00
7:35 AM,55.4,46.4,72,29.90,10.0,SSW,3.5,-,N/A,,Clear,210,2013-05-07 11:35:00
7:55 AM,55.4,48.2,77,29.90,10.0,WSW,3.5,-,N/A,,Clear,250,2013-05-07 11:55:00
8:15 AM,55.4,46.4,72,29.91,10.0,Calm,Calm,-,N/A,,Clear,0,2013-05-07 12:15:00
8:35 AM,55.4,48.2,77,29.91,10.0,WSW,4.6,-,N/A,,Clear,240,2013-05-07 12:35:00
8:55 AM,55.4,48.2,77,29.91,10.0,West,3.5,-,N/A,,Partly Cloudy,270,2013-05-07 12:55:00
9:15 AM,57.2,46.4,67,29.92,10.0,WSW,6.9,-,N/A,,Partly Cloudy,250,2013-05-07 13:15:00
9:35 AM,60.8,48.2,63,29.93,10.0,WSW,8.1,-,N/A,,Scattered Clouds,250,2013-05-07 13:35:00
9:55 AM,60.8,46.4,59,29.93,10.0,West,9.2,-,N/A,,Partly Cloudy,270,2013-05-07 13:55:00
10:15 AM,60.8,46.4,59,29.94,10.0,SW,5.8,-,N/A,,Mostly Cloudy,220,2013-05-07 14:15:00
10:35 AM,62.6,46.4,55,29.94,10.0,WSW,6.9,-,N/A,,Overcast,250,2013-05-07 14:35:00
10:55 AM,64.4,46.4,52,29.94,10.0,WSW,10.4,17.3,N/A,,Overcast,240,2013-05-07 14:55:00
11:15 AM,64.4,44.6,49,29.94,10.0,WSW,9.2,-,N/A,,Mostly Cloudy,240,2013-05-07 15:15:00
11:35 AM,66.2,46.4,49,29.94,10.0,WSW,3.5,-,N/A,,Mostly Cloudy,240,2013-05-07 15:35:00
11:55 AM,66.2,44.6,46,29.94,10.0,West,9.2,-,N/A,,Partly Cloudy,270,2013-05-07 15:55:00
12:15 PM,66.2,44.6,46,29.94,10.0,WNW,5.8,-,N/A,,Partly Cloudy,290,2013-05-07 16:15:00
12:35 PM,66.2,44.6,46,29.93,10.0,West,6.9,-,N/A,,Mostly Cloudy,270,2013-05-07 16:35:00
12:55 PM,66.2,46.4,49,29.93,10.0,SW,8.1,-,N/A,,Scattered Clouds,230,2013-05-07 16:55:00
1:15 PM,66.2,44.6,46,29.92,10.0,WSW,6.9,-,N/A,,Mostly Cloudy,250,2013-05-07 17:15:00
1:35 PM,68.0,44.6,43,29.91,10.0,SW,8.1,-,N/A,,Scattered Clouds,220,2013-05-07 17:35:00
1:55 PM,66.2,44.6,46,29.91,10.0,Calm,Calm,-,N/A,,Mostly Cloudy,0,2013-05-07 17:55:00
2:15 PM,68.0,44.6,43,29.90,10.0,WSW,4.6,-,N/A,,Overcast,240,2013-05-07 18:15:00
2:35 PM,69.8,46.4,43,29.89,10.0,SSW,5.8,-,N/A,,Mostly Cloudy,210,2013-05-07 18:35:00
2:55 PM,69.8,46.4,43,29.89,10.0,SSW,10.4,-,N/A,,Overcast,210,2013-05-07 18:55:00
3:15 PM,66.2,48.2,52,29.89,10.0,SSE,9.2,-,N/A,,Mostly Cloudy,160,2013-05-07 19:15:00
3:35 PM,66.2,50.0,56,29.89,10.0,South,11.5,19.6,N/A,,Overcast,170,2013-05-07 19:35:00
3:55 PM,64.4,48.2,56,29.89,10.0,SE,8.1,-,N/A,Thunderstorm,Thunderstorm,140,2013-05-07 19:55:00
4:15 PM,64.4,48.2,56,29.89,10.0,SSE,6.9,-,N/A,Thunderstorm,Thunderstorm,150,2013-05-07 20:15:00
4:35 PM,60.8,48.2,63,29.90,10.0,SSE,5.8,-,0.01,,Overcast,160,2013-05-07 20:35:00
4:55 PM,59.0,51.8,77,29.90,10.0,East,3.5,-,0.04,,Overcast,80,2013-05-07 20:55:00
5:15 PM,60.8,51.8,72,29.91,10.0,East,3.5,-,N/A,,Overcast,90,2013-05-07 21:15:00
5:35 PM,60.8,51.8,72,29.91,10.0,SSE,5.8,-,0.01,,Mostly Cloudy,150,2013-05-07 21:35:00
5:55 PM,62.6,51.8,68,29.91,10.0,SE,4.6,-,0.01,,Mostly Cloudy,130,2013-05-07 21:55:00
6:15 PM,62.6,51.8,68,29.91,10.0,Calm,Calm,-,N/A,,Clear,0,2013-05-07 22:15:00
6:35 PM,64.4,50.0,59,29.91,10.0,SSE,3.5,-,N/A,,Clear,150,2013-05-07 22:35:00
6:55 PM,64.4,48.2,56,29.91,10.0,South,4.6,-,N/A,,Clear,190,2013-05-07 22:55:00
7:15 PM,62.6,48.2,59,29.91,10.0,South,3.5,-,N/A,,Clear,180,2013-05-07 23:15:00
7:35 PM,60.8,48.2,63,29.90,10.0,Calm,Calm,-,N/A,,Clear,0,2013-05-07 23:35:00
7:55 PM,57.2,50.0,77,29.91,10.0,Calm,Calm,-,N/A,,Clear,0,2013-05-07 23:55:00
8:15 PM,57.2,50.0,77,29.92,10.0,Calm,Calm,-,N/A,,Clear,0,2013-05-08 00:15:00
8:35 PM,57.2,50.0,77,29.93,10.0,Calm,Calm,-,N/A,,Clear,0,2013-05-08 00:35:00
8:55 PM,55.4,50.0,82,29.93,10.0,Calm,Calm,-,N/A,,Clear,0,2013-05-08 00:55:00
9:15 PM,55.4,50.0,82,29.94,10.0,Calm,Calm,-,N/A,,Partly Cloudy,0,2013-05-08 01:15:00
9:35 PM,57.2,50.0,77,29.95,10.0,Calm,Calm,-,N/A,,Mostly Cloudy,0,2013-05-08 01:35:00
9:55 PM,57.2,48.2,72,29.95,10.0,Calm,Calm,-,N/A,,Scattered Clouds,0,2013-05-08 01:55:00
10:15 PM,55.4,48.2,77,29.96,10.0,Calm,Calm,-,N/A,,Clear,0,2013-05-08 02:15:00
10:35 PM,55.4,48.2,77,29.97,10.0,Calm,Calm,-,N/A,,Clear,0,2013-05-08 02:35:00
10:55 PM,55.4,48.2,77,29.96,10.0,Calm,Calm,-,N/A,,Clear,0,2013-05-08 02:55:00
11:15 PM,53.6,48.2,82,29.95,10.0,Calm,Calm,-,N/A,,Partly Cloudy,0,2013-05-08 03:15:00
11:35 PM,53.6,48.2,82,29.96,10.0,Calm,Calm,-,N/A,,Scattered Clouds,0,2013-05-08 03:35:00
11:55 PM,53.6,48.2,82,29.96,10.0,Calm,Calm,-,N/A,,Mostly Cloudy,0,2013-05-08 03:55:00